createdAt,value
2023-01-11T00:00:39.139Z,78.00
2023-01-11T00:03:07.451Z,78.00
2023-01-11T00:05:38.949Z,78.00
2023-01-11T00:08:08.759Z,78.10
2023-01-11T00:10:36.904Z,78.10
2023-01-11T00:13:04.972Z,78.10
2023-01-11T00:15:33.142Z,78.10
2023-01-11T00:18:03.041Z,78.20
2023-01-11T00:20:31.121Z,78.10
2023-01-11T00:22:59.148Z,78.10
2023-01-11T00:25:29.320Z,78.20
2023-01-11T00:28:03.883Z,78.20
2023-01-11T00:30:31.919Z,78.20
2023-01-11T00:33:00.556Z,78.30
2023-01-11T00:35:28.840Z,78.30
2023-01-11T00:38:29.919Z,78.20
2023-01-11T00:41:19.339Z,78.30
2023-01-11T00:44:04.567Z,78.30
2023-01-11T00:46:50.201Z,78.30
2023-01-11T00:49:18.251Z,78.30
2023-01-11T00:51:46.264Z,78.30
2023-01-11T00:54:15.989Z,78.40
2023-01-11T00:56:45.379Z,78.30
2023-01-11T00:59:15.953Z,78.40
2023-01-11T01:01:44.098Z,78.40
2023-01-11T01:04:12.247Z,78.50
2023-01-11T01:06:45.958Z,78.50
2023-01-11T01:09:14.037Z,78.50
2023-01-11T01:11:47.914Z,78.40
2023-01-11T01:14:26.829Z,78.50
2023-01-11T01:16:55.173Z,78.60
2023-01-11T01:19:23.494Z,78.60
2023-01-11T01:22:15.515Z,78.50
2023-01-11T01:24:43.598Z,78.50
2023-01-11T01:27:17.988Z,78.60
2023-01-11T01:29:46.059Z,78.70
2023-01-11T01:32:22.249Z,78.60
2023-01-11T01:34:51.969Z,78.70
2023-01-11T01:37:20.012Z,78.80
2023-01-11T01:39:48.068Z,78.70
2023-01-11T01:43:03.487Z,78.80
2023-01-11T01:45:35.446Z,78.80
2023-01-11T01:48:03.821Z,78.80
2023-01-11T01:50:35.707Z,78.80
2023-01-11T01:53:04.975Z,78.80
2023-01-11T01:55:35.285Z,78.90
2023-01-11T01:58:05.168Z,78.80
2023-01-11T02:00:33.209Z,78.80
2023-01-11T02:03:12.261Z,78.90
2023-01-11T02:05:58.207Z,78.90
2023-01-11T02:08:28.340Z,78.90
2023-01-11T02:10:56.433Z,78.90
2023-01-11T02:13:24.447Z,78.90
2023-01-11T02:16:07.884Z,79.00
2023-01-11T02:18:42.228Z,78.90
2023-01-11T02:21:16.892Z,79.00
2023-01-11T02:24:08.315Z,79.00
2023-01-11T02:27:15.740Z,79.00
2023-01-11T02:29:49.980Z,79.10
2023-01-11T02:32:30.292Z,79.10
2023-01-11T02:35:02.635Z,79.10
2023-01-11T02:37:50.874Z,79.10
2023-01-11T02:40:24.197Z,79.20
2023-01-11T02:43:19.995Z,79.20
2023-01-11T02:45:51.679Z,79.20
2023-01-11T02:48:24.064Z,79.20
2023-01-11T02:50:54.949Z,79.30
2023-01-11T02:53:24.885Z,79.30
2023-01-11T02:56:04.987Z,79.30
2023-01-11T02:58:34.689Z,79.40
2023-01-11T03:01:04.398Z,79.40
2023-01-11T03:03:33.801Z,79.40
2023-01-11T03:06:18.470Z,79.50
2023-01-11T03:09:04.257Z,79.30
2023-01-11T03:11:56.729Z,79.50
2023-01-11T03:14:29.728Z,79.50
2023-01-11T03:17:03.754Z,79.60
2023-01-11T03:19:35.711Z,79.60
2023-01-11T03:22:07.033Z,79.60
2023-01-11T03:24:37.704Z,79.70
2023-01-11T03:27:15.698Z,79.60
2023-01-11T03:29:47.419Z,79.70
2023-01-11T03:32:22.094Z,79.80
2023-01-11T03:34:56.240Z,79.70
2023-01-11T03:37:26.267Z,79.70
2023-01-11T03:40:07.094Z,79.80
2023-01-11T03:42:35.174Z,79.90
2023-01-11T03:45:03.675Z,79.90
2023-01-11T03:47:33.279Z,79.90
2023-01-11T03:50:02.530Z,79.90
2023-01-11T03:52:41.537Z,80.00
2023-01-11T03:55:10.901Z,80.00
2023-01-11T03:57:40.846Z,80.00
2023-01-11T04:00:10.040Z,80.00
2023-01-11T04:02:41.329Z,80.00
2023-01-11T04:05:28.118Z,80.10
2023-01-11T04:07:56.156Z,80.10
2023-01-11T04:10:24.213Z,80.10
2023-01-11T04:12:52.327Z,80.20
2023-01-11T04:15:20.345Z,80.20
2023-01-11T04:17:53.476Z,80.20
2023-01-11T04:20:21.505Z,80.30
2023-01-11T04:22:58.074Z,80.30
2023-01-11T04:25:26.124Z,80.40
2023-01-11T04:27:54.205Z,80.30
2023-01-11T04:30:22.424Z,80.30
2023-01-11T04:33:00.206Z,80.40
2023-01-11T04:35:28.331Z,80.50
2023-01-11T04:38:10.134Z,80.40
2023-01-11T04:40:38.202Z,80.40
2023-01-11T04:43:05.276Z,80.40
2023-01-11T04:45:33.332Z,80.40
2023-01-11T04:48:05.959Z,80.60
2023-01-11T04:50:34.190Z,80.50
2023-01-11T04:53:02.303Z,80.60
2023-01-11T04:55:30.368Z,80.60
2023-01-11T04:58:10.108Z,80.70
2023-01-11T05:00:38.147Z,80.70
2023-01-11T05:03:17.503Z,80.70
2023-01-11T05:05:46.097Z,80.80
2023-01-11T05:08:14.167Z,80.80
2023-01-11T05:10:42.267Z,80.80
2023-01-11T05:13:22.161Z,80.90
2023-01-11T05:15:50.252Z,80.90
2023-01-11T05:18:19.768Z,81.10
2023-01-11T05:20:52.413Z,81.20
2023-01-11T05:23:20.446Z,81.30
2023-01-11T05:25:52.155Z,81.10
2023-01-11T05:28:39.776Z,81.10
2023-01-11T05:31:16.245Z,81.20
2023-01-11T05:33:45.686Z,81.20
2023-01-11T05:36:28.554Z,81.20
2023-01-11T05:38:57.386Z,81.30
2023-01-11T05:41:26.123Z,81.40
2023-01-11T05:44:11.083Z,81.30
2023-01-11T05:46:40.749Z,81.40
2023-01-11T05:49:11.913Z,81.40
2023-01-11T05:51:52.160Z,81.60
2023-01-11T05:54:20.363Z,81.70
2023-01-11T05:57:11.623Z,81.70
2023-01-11T05:59:39.775Z,81.60
2023-01-11T06:02:07.934Z,81.80
2023-01-11T06:05:05.484Z,81.70
2023-01-11T06:07:33.584Z,81.70
2023-01-11T06:10:01.645Z,81.80
2023-01-11T06:12:29.677Z,81.90
2023-01-11T06:14:57.756Z,81.90
2023-01-11T06:17:28.167Z,82.10
2023-01-11T06:19:56.281Z,82.00
2023-01-11T06:22:29.631Z,82.30
2023-01-11T06:24:57.687Z,82.30
2023-01-11T06:27:34.160Z,82.20
2023-01-11T06:30:04.471Z,82.30
2023-01-11T06:32:32.463Z,82.60
2023-01-11T06:35:00.496Z,82.50
2023-01-11T06:37:29.902Z,82.60
2023-01-11T06:39:57.919Z,82.70
2023-01-11T06:42:25.967Z,82.70
2023-01-11T06:44:58.199Z,83.10
2023-01-11T06:47:26.234Z,82.80
2023-01-11T06:49:54.275Z,83.00
2023-01-11T06:52:22.327Z,82.90
2023-01-11T06:54:51.745Z,83.10
2023-01-11T06:57:19.763Z,83.40
2023-01-11T06:59:47.799Z,83.20
2023-01-11T07:02:16.038Z,83.20
2023-01-11T07:04:44.155Z,83.20
2023-01-11T07:07:12.249Z,83.40
2023-01-11T07:09:40.397Z,83.50
2023-01-11T07:12:11.613Z,83.50
2023-01-11T07:14:39.645Z,83.50
2023-01-11T07:17:22.235Z,83.60
2023-01-11T07:19:50.271Z,83.50
2023-01-11T07:22:18.334Z,83.60
2023-01-11T07:24:48.401Z,83.80
2023-01-11T07:27:17.967Z,84.10
2023-01-11T07:29:46.014Z,84.00
2023-01-11T07:32:16.254Z,84.30
2023-01-11T07:34:44.303Z,84.00
2023-01-11T07:37:46.596Z,84.00
2023-01-11T07:40:18.067Z,84.30
2023-01-11T07:43:09.011Z,84.10
2023-01-11T07:45:57.929Z,84.10
2023-01-11T07:48:27.036Z,84.00
2023-01-11T07:51:04.322Z,84.00
2023-01-11T07:53:32.366Z,84.00
2023-01-11T07:56:00.426Z,84.00
2023-01-11T07:58:29.870Z,84.10
2023-01-11T08:01:00.470Z,84.10
2023-01-11T08:03:28.646Z,84.20
2023-01-11T08:05:56.722Z,84.30
2023-01-11T08:08:24.796Z,84.10
2023-01-11T08:11:39.093Z,84.10
2023-01-11T08:14:26.822Z,84.50
2023-01-11T08:16:54.890Z,84.10
2023-01-11T08:19:22.941Z,84.20
2023-01-11T08:21:51.378Z,84.20
2023-01-11T08:24:34.769Z,84.50
2023-01-11T08:27:03.026Z,84.20
2023-01-11T08:29:32.474Z,84.30
2023-01-11T08:32:10.324Z,84.30
2023-01-11T08:34:40.484Z,84.30
2023-01-11T08:37:08.547Z,84.40
2023-01-11T08:39:40.490Z,84.30
2023-01-11T08:42:08.524Z,84.30
2023-01-11T08:44:37.933Z,84.50
2023-01-11T08:47:06.010Z,84.60
2023-01-11T08:49:34.301Z,84.50
2023-01-11T08:52:02.372Z,84.40
2023-01-11T08:54:30.449Z,84.50
2023-01-11T08:57:04.408Z,84.80
2023-01-11T08:59:32.441Z,84.80
2023-01-11T09:02:02.825Z,84.70
2023-01-11T09:04:51.901Z,84.70
2023-01-11T09:07:19.941Z,84.80
2023-01-11T09:09:47.978Z,85.00
2023-01-11T09:12:16.029Z,85.00
2023-01-11T09:14:44.152Z,85.50
2023-01-11T09:17:17.904Z,85.30
2023-01-11T09:19:45.963Z,86.00
2023-01-11T09:22:14.046Z,86.20
2023-01-11T09:24:42.110Z,86.00
2023-01-11T09:27:11.665Z,85.70
2023-01-11T09:29:40.405Z,85.90
2023-01-11T09:32:08.473Z,86.00
2023-01-11T09:34:37.911Z,86.30
2023-01-11T09:37:07.032Z,86.20
2023-01-11T09:39:35.417Z,86.20
2023-01-11T09:42:27.091Z,86.30
2023-01-11T09:44:58.227Z,85.90
2023-01-11T09:47:31.736Z,86.00
2023-01-11T09:50:03.079Z,85.80
2023-01-11T09:52:34.313Z,86.20
2023-01-11T09:55:04.579Z,86.00
2023-01-11T09:57:40.893Z,86.20
2023-01-11T10:00:16.466Z,86.00
2023-01-11T10:02:52.320Z,86.10
2023-01-11T10:05:35.787Z,86.50
2023-01-11T10:18:28.735Z,86.00
2023-01-11T10:18:32.760Z,85.90
2023-01-11T10:19:50.226Z,86.00
2023-01-11T10:22:23.396Z,86.00
2023-01-11T10:24:53.777Z,85.80
2023-01-11T10:27:22.888Z,86.00
2023-01-11T10:30:12.745Z,86.00
2023-01-11T10:33:03.266Z,85.90
2023-01-11T10:35:59.066Z,85.90
2023-01-11T10:38:51.456Z,86.00
2023-01-11T10:41:26.522Z,86.00
2023-01-11T10:44:05.104Z,86.10
2023-01-11T10:46:34.408Z,85.90
2023-01-11T10:49:25.749Z,85.90
2023-01-11T10:52:00.065Z,85.90
2023-01-11T10:54:31.968Z,86.00
2023-01-11T10:57:08.131Z,86.00
2023-01-11T11:00:04.533Z,85.80
2023-01-11T11:02:48.331Z,86.00
2023-01-11T11:05:27.697Z,85.70
2023-01-11T11:08:00.599Z,85.70
2023-01-11T11:10:33.332Z,85.70
2023-01-11T11:13:06.562Z,86.00
2023-01-11T11:15:36.549Z,85.80
2023-01-11T11:18:04.623Z,85.90
2023-01-11T11:20:33.543Z,86.00
2023-01-11T11:23:01.603Z,86.00
2023-01-11T11:25:32.636Z,85.70
2023-01-11T11:28:05.551Z,85.80
2023-01-11T11:30:34.932Z,85.90
2023-01-11T11:33:03.747Z,85.90
2023-01-11T11:35:36.987Z,86.00
2023-01-11T11:38:05.317Z,85.80
2023-01-11T11:40:36.248Z,85.90
2023-01-11T11:43:18.257Z,85.80
2023-01-11T11:45:53.590Z,85.70
2023-01-11T11:48:21.801Z,85.80
2023-01-11T11:50:49.918Z,85.80
2023-01-11T11:53:36.429Z,85.70
2023-01-11T11:56:15.553Z,85.60
2023-01-11T11:58:44.776Z,85.60
2023-01-11T12:01:28.825Z,85.60
2023-01-11T12:03:58.294Z,85.60
2023-01-11T12:06:34.504Z,85.50
2023-01-11T12:09:05.202Z,85.50
2023-01-11T12:11:36.763Z,85.30
2023-01-11T12:14:07.572Z,85.30
2023-01-11T12:16:37.217Z,85.30
2023-01-11T12:19:05.330Z,85.20
2023-01-11T12:21:33.436Z,85.30
2023-01-11T12:24:10.673Z,85.30
2023-01-11T12:26:41.795Z,85.30
2023-01-11T12:29:38.392Z,85.20
2023-01-11T12:32:15.060Z,85.30
2023-01-11T12:35:10.903Z,85.20
2023-01-11T12:37:53.246Z,85.10
2023-01-11T12:40:26.422Z,85.20
2023-01-11T12:43:09.949Z,85.20
2023-01-11T12:45:41.265Z,85.10
2023-01-11T12:48:23.190Z,85.00
2023-01-11T12:51:10.372Z,85.10
2023-01-11T12:53:48.220Z,85.10
2023-01-11T12:56:28.550Z,84.90
2023-01-11T12:58:59.755Z,84.90
2023-01-11T13:01:38.262Z,85.00
2023-01-11T13:04:44.982Z,84.90
2023-01-11T13:07:21.591Z,84.90
2023-01-11T13:09:57.064Z,84.90
2023-01-11T13:12:28.194Z,85.00
2023-01-11T13:15:05.917Z,84.90
2023-01-11T13:17:38.313Z,84.90
2023-01-11T13:20:15.398Z,84.80
2023-01-11T13:22:44.736Z,84.90
2023-01-11T13:25:24.135Z,84.70
2023-01-11T13:27:52.287Z,84.70
2023-01-11T13:30:24.452Z,84.80
2023-01-11T13:32:55.358Z,84.70
2023-01-11T13:35:37.167Z,84.60
2023-01-11T13:38:10.990Z,84.60
2023-01-11T13:40:43.248Z,84.60
2023-01-11T13:43:13.198Z,84.50
2023-01-11T13:45:45.345Z,84.50
2023-01-11T13:48:19.471Z,84.50
2023-01-11T13:50:50.140Z,84.40
2023-01-11T13:53:21.941Z,84.40
2023-01-11T13:55:55.875Z,84.30
2023-01-11T13:58:29.032Z,84.40
2023-01-11T14:01:00.661Z,84.30
2023-01-11T14:03:36.456Z,84.20
2023-01-11T14:06:13.421Z,84.10
2023-01-11T14:09:01.799Z,84.10
2023-01-11T14:11:32.451Z,84.00
2023-01-11T14:14:15.739Z,83.90
2023-01-11T14:16:56.232Z,83.90
2023-01-11T14:19:26.076Z,83.80
2023-01-11T14:22:06.695Z,83.80
2023-01-11T14:24:35.954Z,83.70
2023-01-11T14:27:39.867Z,83.60
2023-01-11T14:30:26.640Z,83.60
2023-01-11T14:33:08.684Z,83.50
2023-01-11T14:35:56.099Z,83.50
2023-01-11T14:38:48.604Z,83.40
2023-01-11T14:41:28.248Z,83.50
2023-01-11T14:44:05.089Z,83.40
2023-01-11T14:46:50.414Z,83.40
2023-01-11T14:49:25.975Z,83.40
2023-01-11T14:51:57.313Z,83.40
2023-01-11T14:54:26.991Z,83.30
2023-01-11T14:56:55.679Z,83.30
2023-01-11T14:59:33.419Z,83.20
2023-01-11T15:02:28.024Z,83.20
2023-01-11T15:05:08.219Z,83.20
2023-01-11T15:07:37.947Z,83.10
2023-01-11T15:10:08.718Z,83.10
2023-01-11T15:12:37.079Z,83.10
2023-01-11T15:15:06.459Z,82.90
2023-01-11T15:17:51.864Z,83.00
2023-01-11T15:20:22.009Z,82.90
2023-01-11T15:22:56.172Z,82.90
2023-01-11T15:25:25.128Z,82.90
2023-01-11T15:27:53.880Z,82.90
2023-01-11T15:30:43.196Z,82.70
2023-01-11T15:33:46.302Z,82.70
2023-01-11T15:36:15.776Z,82.70
2023-01-11T15:38:49.492Z,82.70
2023-01-11T15:41:36.475Z,82.60
2023-01-11T15:44:17.523Z,82.60
2023-01-11T15:47:19.202Z,82.60
2023-01-11T15:50:10.024Z,82.60
2023-01-11T15:53:14.733Z,82.60
2023-01-11T15:56:07.235Z,82.50
2023-01-11T15:59:08.847Z,82.50
2023-01-11T16:01:40.424Z,82.50
2023-01-11T16:04:22.841Z,82.40
2023-01-11T16:06:53.721Z,82.50
2023-01-11T16:09:33.337Z,82.50
2023-01-11T16:12:13.787Z,82.40
2023-01-11T16:14:55.881Z,82.40
2023-01-11T16:17:24.306Z,82.40
2023-01-11T16:19:56.674Z,82.40
2023-01-11T16:22:29.404Z,82.30
2023-01-11T16:25:01.338Z,82.30
2023-01-11T16:27:30.247Z,82.30
2023-01-11T16:29:58.362Z,82.40
2023-01-11T16:32:29.598Z,82.30
2023-01-11T16:34:57.648Z,82.20
2023-01-11T16:37:35.991Z,82.30
2023-01-11T16:40:09.511Z,82.30
2023-01-11T16:42:49.524Z,82.20
2023-01-11T16:45:23.342Z,82.20
2023-01-11T16:48:04.814Z,82.10
2023-01-11T16:50:32.981Z,82.20
2023-01-11T16:53:01.067Z,82.20
2023-01-11T16:55:32.644Z,82.00
2023-01-11T16:58:20.184Z,82.10
2023-01-11T17:00:57.751Z,82.00
2023-01-11T17:03:26.181Z,82.10
2023-01-11T17:06:15.399Z,82.10
2023-01-11T17:08:44.172Z,82.10
2023-01-11T17:11:22.151Z,82.00
2023-01-11T17:14:15.495Z,82.00
2023-01-11T17:16:44.483Z,82.00
2023-01-11T17:19:15.565Z,82.00
2023-01-11T17:21:47.871Z,81.90
2023-01-11T17:24:17.150Z,81.90
2023-01-11T17:26:47.840Z,81.80
2023-01-11T17:29:18.514Z,81.80
2023-01-11T17:31:46.735Z,81.90
2023-01-11T17:34:18.576Z,81.80
2023-01-11T17:36:46.822Z,81.80
2023-01-11T17:39:18.515Z,81.70
2023-01-11T17:42:05.526Z,81.70
2023-01-11T17:44:52.266Z,81.60
2023-01-11T17:47:20.338Z,81.60
2023-01-11T17:49:50.372Z,81.40
2023-01-11T17:52:21.176Z,81.50
2023-01-11T17:54:53.099Z,81.60
2023-01-11T17:57:22.547Z,81.60
2023-01-11T17:59:50.632Z,81.50
2023-01-11T18:02:18.816Z,81.50
2023-01-11T18:04:46.920Z,81.50
2023-01-11T18:07:17.818Z,81.40
2023-01-11T18:09:46.828Z,81.40
2023-01-11T18:12:18.858Z,81.40
2023-01-11T18:14:52.544Z,81.40
2023-01-11T18:17:36.169Z,81.40
2023-01-11T18:20:27.677Z,81.30
2023-01-11T18:23:04.621Z,81.20
2023-01-11T18:25:34.605Z,81.30
2023-01-11T18:28:29.263Z,81.30
2023-01-11T18:30:59.224Z,81.30
2023-01-11T18:33:28.133Z,81.30
2023-01-11T18:35:57.932Z,81.30
2023-01-11T18:38:28.734Z,81.20
2023-01-11T18:40:57.213Z,81.20
2023-01-11T18:43:26.886Z,81.20
2023-01-11T18:45:55.015Z,81.10
2023-01-11T18:48:23.207Z,81.20
2023-01-11T18:50:52.083Z,81.20
2023-01-11T18:53:20.270Z,81.10
2023-01-11T18:55:49.742Z,81.20
2023-01-11T18:58:17.777Z,81.20
2023-01-11T19:00:45.914Z,80.90
2023-01-11T19:05:42.958Z,80.80
2023-01-11T19:08:11.070Z,80.90
2023-01-11T19:10:39.158Z,81.10
2023-01-11T19:13:13.311Z,80.80
2023-01-11T19:15:41.495Z,80.70
2023-01-11T19:18:11.012Z,80.80
2023-01-11T19:20:40.944Z,80.80
2023-01-11T19:23:10.882Z,80.70
2023-01-11T19:25:38.974Z,80.60
2023-01-11T19:28:12.246Z,80.60
2023-01-11T19:30:40.421Z,80.70
2023-01-11T19:33:08.547Z,80.60
2023-01-11T19:35:40.715Z,80.50
2023-01-11T19:38:10.862Z,80.70
2023-01-11T19:40:39.068Z,80.50
2023-01-11T19:43:07.160Z,80.60
2023-01-11T19:45:36.858Z,80.40
2023-01-11T19:48:05.105Z,80.40
2023-01-11T19:50:33.194Z,80.40
2023-01-11T19:53:01.287Z,80.40
2023-01-11T19:55:29.356Z,80.50
2023-01-11T19:57:57.432Z,80.40
2023-01-11T20:00:28.967Z,80.10
2023-01-11T20:02:58.446Z,80.10
2023-01-11T20:05:26.544Z,80.30
2023-01-11T20:07:54.851Z,80.20
2023-01-11T20:10:22.975Z,80.30
2023-01-11T20:12:51.065Z,80.30
2023-01-11T20:15:19.251Z,80.00
2023-01-11T20:17:47.346Z,80.10
2023-01-11T20:20:18.958Z,80.20
2023-01-11T20:22:52.956Z,80.10
2023-01-11T20:25:20.994Z,80.00
2023-01-11T20:27:49.297Z,80.10
2023-01-11T20:30:17.918Z,79.90
2023-01-11T20:32:46.025Z,80.00
2023-01-11T20:35:14.109Z,80.10
2023-01-11T20:37:43.547Z,80.00
2023-01-11T20:40:14.327Z,79.80
2023-01-11T20:42:46.917Z,79.70
2023-01-11T20:45:15.030Z,79.70
2023-01-11T20:47:43.120Z,79.60
2023-01-11T20:50:11.675Z,79.70
2023-01-11T20:52:40.945Z,79.80
2023-01-11T20:55:11.128Z,79.70
2023-01-11T20:57:39.200Z,79.60
2023-01-11T21:02:37.803Z,79.50
2023-01-11T21:05:06.300Z,79.40
2023-01-11T21:07:34.925Z,79.60
2023-01-11T21:10:02.966Z,79.40
2023-01-11T21:12:32.414Z,79.60
2023-01-11T21:15:00.478Z,79.60
2023-01-11T21:17:28.967Z,79.60
2023-01-11T21:19:58.888Z,79.20
2023-01-11T21:22:27.625Z,79.50
2023-01-11T21:24:55.634Z,79.50
2023-01-11T21:27:23.786Z,79.30
2023-01-11T21:29:53.303Z,79.20
2023-01-11T21:32:21.354Z,79.30
2023-01-11T21:34:58.938Z,79.30
2023-01-11T21:37:27.002Z,79.40
2023-01-11T21:39:55.261Z,79.20
2023-01-11T21:42:23.385Z,79.50
2023-01-11T21:45:00.563Z,79.50
2023-01-11T21:47:28.977Z,79.40
2023-01-11T21:49:57.018Z,79.60
2023-01-11T21:52:25.099Z,79.30
2023-01-11T21:54:53.748Z,79.40
2023-01-11T21:57:21.890Z,79.50
2023-01-11T21:59:49.921Z,79.30
2023-01-11T22:02:24.603Z,79.50
2023-01-11T22:04:57.590Z,79.40
2023-01-11T22:07:26.694Z,79.60
2023-01-11T22:10:04.440Z,79.50
2023-01-11T22:12:34.627Z,79.50
2023-01-11T22:15:11.452Z,79.40
2023-01-11T22:17:41.307Z,79.50
2023-01-11T22:20:10.687Z,79.60
2023-01-11T22:22:38.702Z,79.60
2023-01-11T22:25:07.890Z,79.40
2023-01-11T22:27:40.960Z,79.60
2023-01-11T22:30:10.414Z,79.50
2023-01-11T22:32:43.410Z,79.80
2023-01-11T22:35:11.738Z,79.80
2023-01-11T22:37:39.819Z,79.70
2023-01-11T22:40:09.418Z,79.80
2023-01-11T22:42:37.437Z,79.80
2023-01-11T22:45:08.107Z,79.60
2023-01-11T22:47:36.174Z,79.80
2023-01-11T22:50:06.455Z,79.70
2023-01-11T22:52:34.563Z,79.90
2023-01-11T22:55:02.675Z,79.80
2023-01-11T22:57:30.763Z,79.80
2023-01-11T22:59:58.974Z,79.80
2023-01-11T23:02:27.149Z,79.80
2023-01-11T23:04:59.053Z,79.80
2023-01-11T23:07:28.466Z,79.80
2023-01-11T23:09:56.520Z,79.80
2023-01-11T23:12:41.817Z,79.70
2023-01-11T23:15:10.931Z,79.70
2023-01-11T23:17:41.006Z,79.90
2023-01-11T23:20:10.554Z,79.80
2023-01-11T23:22:39.951Z,79.80
2023-01-11T23:25:09.331Z,80.00
2023-01-11T23:27:37.373Z,80.10
2023-01-11T23:30:06.291Z,80.00
2023-01-11T23:32:34.901Z,80.00
2023-01-11T23:35:03.063Z,80.00
2023-01-11T23:37:48.580Z,80.10
2023-01-11T23:40:17.249Z,80.10
2023-01-11T23:42:44.288Z,80.20
2023-01-11T23:45:12.476Z,80.10
2023-01-11T23:47:39.501Z,80.20
2023-01-11T23:50:08.275Z,80.30
2023-01-11T23:52:36.314Z,80.30
2023-01-11T23:55:06.537Z,80.40
2023-01-11T23:57:34.584Z,80.30
